sensor_id;sensor_type;location;lat;lon;timestamp;P1;durP1;ratioP1;P2;durP2;ratioP2
48845;SDS011;34665;51.886;5.436;2022-12-10T00:01:56;73.13;;;26.45;;
48845;SDS011;34665;51.886;5.436;2022-12-10T00:04:21;68.63;;;23.77;;
48845;SDS011;34665;51.886;5.436;2022-12-10T00:06:46;69.90;;;25.97;;
48845;SDS011;34665;51.886;5.436;2022-12-10T00:09:14;78.55;;;28.15;;
48845;SDS011;34665;51.886;5.436;2022-12-10T00:11:41;89.28;;;26.90;;
48845;SDS011;34665;51.886;5.436;2022-12-10T00:14:07;78.50;;;24.85;;
48845;SDS011;34665;51.886;5.436;2022-12-10T00:19:00;77.72;;;27.10;;
48845;SDS011;34665;51.886;5.436;2022-12-10T00:21:27;76.50;;;26.35;;
48845;SDS011;34665;51.886;5.436;2022-12-10T00:23:55;82.22;;;27.55;;
48845;SDS011;34665;51.886;5.436;2022-12-10T00:26:22;77.20;;;28.33;;
48845;SDS011;34665;51.886;5.436;2022-12-10T00:28:50;83.30;;;28.67;;
48845;SDS011;34665;51.886;5.436;2022-12-10T00:31:17;74.75;;;28.35;;
48845;SDS011;34665;51.886;5.436;2022-12-10T00:33:55;82.85;;;30.42;;
48845;SDS011;34665;51.886;5.436;2022-12-10T00:36:23;79.50;;;28.08;;
48845;SDS011;34665;51.886;5.436;2022-12-10T00:38:51;89.22;;;28.63;;
48845;SDS011;34665;51.886;5.436;2022-12-10T00:43:43;86.40;;;32.60;;
48845;SDS011;34665;51.886;5.436;2022-12-10T00:46:10;100.57;;;36.22;;
48845;SDS011;34665;51.886;5.436;2022-12-10T00:48:39;94.88;;;37.03;;
48845;SDS011;34665;51.886;5.436;2022-12-10T00:51:07;103.75;;;39.10;;
48845;SDS011;34665;51.886;5.436;2022-12-10T00:53:36;106.18;;;38.88;;
48845;SDS011;34665;51.886;5.436;2022-12-10T00:56:05;103.63;;;38.75;;
48845;SDS011;34665;51.886;5.436;2022-12-10T00:58:32;97.72;;;36.67;;
48845;SDS011;34665;51.886;5.436;2022-12-10T01:01:09;103.35;;;35.33;;
48845;SDS011;34665;51.886;5.436;2022-12-10T01:03:35;100.18;;;36.47;;
48845;SDS011;34665;51.886;5.436;2022-12-10T01:06:12;101.72;;;35.65;;
48845;SDS011;34665;51.886;5.436;2022-12-10T01:08:43;112.22;;;41.67;;
48845;SDS011;34665;51.886;5.436;2022-12-10T01:13:37;110.20;;;36.58;;
48845;SDS011;34665;51.886;5.436;2022-12-10T01:16:04;101.10;;;36.97;;
48845;SDS011;34665;51.886;5.436;2022-12-10T01:18:32;101.22;;;39.20;;
48845;SDS011;34665;51.886;5.436;2022-12-10T01:21:05;93.95;;;34.60;;
48845;SDS011;34665;51.886;5.436;2022-12-10T01:23:34;87.90;;;32.15;;
48845;SDS011;34665;51.886;5.436;2022-12-10T01:26:05;88.18;;;29.70;;
48845;SDS011;34665;51.886;5.436;2022-12-10T01:28:34;86.53;;;31.45;;
48845;SDS011;34665;51.886;5.436;2022-12-10T01:31:05;95.38;;;33.40;;
48845;SDS011;34665;51.886;5.436;2022-12-10T01:33:33;82.47;;;29.60;;
48845;SDS011;34665;51.886;5.436;2022-12-10T01:36:04;87.75;;;30.27;;
48845;SDS011;34665;51.886;5.436;2022-12-10T01:38:38;99.93;;;35.80;;
48845;SDS011;34665;51.886;5.436;2022-12-10T01:41:05;92.32;;;37.00;;
48845;SDS011;34665;51.886;5.436;2022-12-10T01:43:51;93.25;;;34.70;;
48845;SDS011;34665;51.886;5.436;2022-12-10T01:46:29;95.43;;;32.88;;
48845;SDS011;34665;51.886;5.436;2022-12-10T01:48:56;85.40;;;30.90;;
48845;SDS011;34665;51.886;5.436;2022-12-10T01:51:24;76.72;;;30.20;;
48845;SDS011;34665;51.886;5.436;2022-12-10T01:53:51;77.88;;;32.47;;
48845;SDS011;34665;51.886;5.436;2022-12-10T01:56:18;91.47;;;31.65;;
48845;SDS011;34665;51.886;5.436;2022-12-10T01:58:45;84.18;;;31.92;;
48845;SDS011;34665;51.886;5.436;2022-12-10T02:01:32;93.68;;;31.55;;
48845;SDS011;34665;51.886;5.436;2022-12-10T02:04:14;103.00;;;32.80;;
48845;SDS011;34665;51.886;5.436;2022-12-10T02:09:26;71.32;;;25.65;;
48845;SDS011;34665;51.886;5.436;2022-12-10T02:12:15;94.78;;;33.65;;
48845;SDS011;34665;51.886;5.436;2022-12-10T02:17:31;97.00;;;33.33;;
48845;SDS011;34665;51.886;5.436;2022-12-10T02:22:42;97.47;;;35.08;;
48845;SDS011;34665;51.886;5.436;2022-12-10T02:25:11;107.85;;;35.25;;
48845;SDS011;34665;51.886;5.436;2022-12-10T02:30:31;102.88;;;36.65;;
48845;SDS011;34665;51.886;5.436;2022-12-10T02:33:00;113.97;;;36.58;;
48845;SDS011;34665;51.886;5.436;2022-12-10T02:35:28;106.47;;;36.03;;
48845;SDS011;34665;51.886;5.436;2022-12-10T02:38:03;108.50;;;36.15;;
48845;SDS011;34665;51.886;5.436;2022-12-10T02:40:35;106.82;;;35.58;;
48845;SDS011;34665;51.886;5.436;2022-12-10T02:43:08;111.32;;;36.42;;
48845;SDS011;34665;51.886;5.436;2022-12-10T02:45:37;120.78;;;36.58;;
48845;SDS011;34665;51.886;5.436;2022-12-10T02:48:05;119.85;;;34.97;;
48845;SDS011;34665;51.886;5.436;2022-12-10T02:50:39;113.38;;;36.70;;
48845;SDS011;34665;51.886;5.436;2022-12-10T02:53:05;117.82;;;37.30;;
48845;SDS011;34665;51.886;5.436;2022-12-10T02:55:35;118.32;;;35.95;;
48845;SDS011;34665;51.886;5.436;2022-12-10T02:58:28;129.65;;;35.38;;
48845;SDS011;34665;51.886;5.436;2022-12-10T03:01:07;123.38;;;36.33;;
48845;SDS011;34665;51.886;5.436;2022-12-10T03:04:13;184.98;;;36.13;;
48845;SDS011;34665;51.886;5.436;2022-12-10T03:06:47;167.45;;;35.58;;
48845;SDS011;34665;51.886;5.436;2022-12-10T03:09:20;131.45;;;33.58;;
48845;SDS011;34665;51.886;5.436;2022-12-10T03:11:49;132.30;;;37.60;;
48845;SDS011;34665;51.886;5.436;2022-12-10T03:14:24;180.57;;;39.22;;
48845;SDS011;34665;51.886;5.436;2022-12-10T03:16:54;173.23;;;38.40;;
48845;SDS011;34665;51.886;5.436;2022-12-10T03:19:23;176.05;;;38.70;;
48845;SDS011;34665;51.886;5.436;2022-12-10T03:21:53;166.77;;;40.17;;
48845;SDS011;34665;51.886;5.436;2022-12-10T03:24:23;157.13;;;38.75;;
48845;SDS011;34665;51.886;5.436;2022-12-10T03:26:51;144.27;;;37.03;;
48845;SDS011;34665;51.886;5.436;2022-12-10T03:29:19;132.05;;;38.03;;
48845;SDS011;34665;51.886;5.436;2022-12-10T03:31:50;157.45;;;38.83;;
48845;SDS011;34665;51.886;5.436;2022-12-10T03:34:18;147.35;;;38.55;;
48845;SDS011;34665;51.886;5.436;2022-12-10T03:36:44;162.57;;;40.30;;
48845;SDS011;34665;51.886;5.436;2022-12-10T03:39:10;129.52;;;36.05;;
48845;SDS011;34665;51.886;5.436;2022-12-10T03:41:36;191.05;;;40.28;;
48845;SDS011;34665;51.886;5.436;2022-12-10T03:44:02;175.33;;;40.23;;
48845;SDS011;34665;51.886;5.436;2022-12-10T03:46:29;206.80;;;43.50;;
48845;SDS011;34665;51.886;5.436;2022-12-10T03:48:56;154.15;;;40.53;;
48845;SDS011;34665;51.886;5.436;2022-12-10T03:51:24;224.25;;;43.75;;
48845;SDS011;34665;51.886;5.436;2022-12-10T03:53:49;198.82;;;47.30;;
48845;SDS011;34665;51.886;5.436;2022-12-10T03:56:16;162.93;;;43.80;;
48845;SDS011;34665;51.886;5.436;2022-12-10T03:58:44;158.52;;;39.38;;
48845;SDS011;34665;51.886;5.436;2022-12-10T04:01:10;123.82;;;34.90;;
48845;SDS011;34665;51.886;5.436;2022-12-10T04:03:38;196.43;;;41.63;;
48845;SDS011;34665;51.886;5.436;2022-12-10T04:06:06;229.38;;;43.25;;
48845;SDS011;34665;51.886;5.436;2022-12-10T04:08:33;186.18;;;42.38;;
48845;SDS011;34665;51.886;5.436;2022-12-10T04:11:03;151.33;;;44.93;;
48845;SDS011;34665;51.886;5.436;2022-12-10T04:13:33;222.07;;;42.63;;
48845;SDS011;34665;51.886;5.436;2022-12-10T04:16:19;181.98;;;40.05;;
48845;SDS011;34665;51.886;5.436;2022-12-10T04:18:55;202.23;;;42.00;;
48845;SDS011;34665;51.886;5.436;2022-12-10T04:21:23;238.25;;;45.50;;
48845;SDS011;34665;51.886;5.436;2022-12-10T04:24:08;215.95;;;44.65;;
48845;SDS011;34665;51.886;5.436;2022-12-10T04:26:54;224.77;;;43.53;;
48845;SDS011;34665;51.886;5.436;2022-12-10T04:29:22;229.75;;;47.22;;
48845;SDS011;34665;51.886;5.436;2022-12-10T04:31:49;204.07;;;47.60;;
48845;SDS011;34665;51.886;5.436;2022-12-10T04:34:14;199.45;;;38.33;;
48845;SDS011;34665;51.886;5.436;2022-12-10T04:36:40;192.20;;;45.20;;
48845;SDS011;34665;51.886;5.436;2022-12-10T04:39:05;222.50;;;51.67;;
48845;SDS011;34665;51.886;5.436;2022-12-10T04:41:31;259.37;;;44.33;;
48845;SDS011;34665;51.886;5.436;2022-12-10T04:43:56;236.03;;;50.03;;
48845;SDS011;34665;51.886;5.436;2022-12-10T04:46:22;212.82;;;48.75;;
48845;SDS011;34665;51.886;5.436;2022-12-10T04:48:47;252.90;;;46.37;;
48845;SDS011;34665;51.886;5.436;2022-12-10T04:51:13;208.05;;;42.75;;
48845;SDS011;34665;51.886;5.436;2022-12-10T04:53:39;243.13;;;42.03;;
48845;SDS011;34665;51.886;5.436;2022-12-10T04:56:04;268.40;;;40.77;;
48845;SDS011;34665;51.886;5.436;2022-12-10T04:58:31;213.73;;;39.85;;
48845;SDS011;34665;51.886;5.436;2022-12-10T05:01:04;155.15;;;37.08;;
48845;SDS011;34665;51.886;5.436;2022-12-10T05:03:31;235.30;;;45.38;;
48845;SDS011;34665;51.886;5.436;2022-12-10T05:06:05;241.98;;;47.00;;
48845;SDS011;34665;51.886;5.436;2022-12-10T05:08:32;199.25;;;43.42;;
48845;SDS011;34665;51.886;5.436;2022-12-10T05:11:00;331.77;;;50.72;;
48845;SDS011;34665;51.886;5.436;2022-12-10T05:13:28;352.67;;;52.65;;
48845;SDS011;34665;51.886;5.436;2022-12-10T05:15:53;216.10;;;46.03;;
48845;SDS011;34665;51.886;5.436;2022-12-10T05:18:19;208.00;;;41.28;;
48845;SDS011;34665;51.886;5.436;2022-12-10T05:20:44;297.47;;;46.07;;
48845;SDS011;34665;51.886;5.436;2022-12-10T05:23:10;289.80;;;50.13;;
48845;SDS011;34665;51.886;5.436;2022-12-10T05:26:13;311.15;;;48.08;;
48845;SDS011;34665;51.886;5.436;2022-12-10T05:28:54;266.00;;;43.17;;
48845;SDS011;34665;51.886;5.436;2022-12-10T05:31:22;332.25;;;48.88;;
48845;SDS011;34665;51.886;5.436;2022-12-10T05:33:50;236.10;;;43.42;;
48845;SDS011;34665;51.886;5.436;2022-12-10T05:36:18;232.60;;;44.22;;
48845;SDS011;34665;51.886;5.436;2022-12-10T05:38:46;241.80;;;45.40;;
48845;SDS011;34665;51.886;5.436;2022-12-10T05:43:44;202.75;;;43.25;;
48845;SDS011;34665;51.886;5.436;2022-12-10T05:46:11;252.40;;;46.65;;
48845;SDS011;34665;51.886;5.436;2022-12-10T05:48:39;234.13;;;44.70;;
48845;SDS011;34665;51.886;5.436;2022-12-10T05:51:05;223.68;;;40.17;;
48845;SDS011;34665;51.886;5.436;2022-12-10T05:53:32;234.07;;;46.00;;
48845;SDS011;34665;51.886;5.436;2022-12-10T05:56:08;278.30;;;43.17;;
48845;SDS011;34665;51.886;5.436;2022-12-10T05:58:35;261.85;;;43.17;;
48845;SDS011;34665;51.886;5.436;2022-12-10T06:01:05;268.05;;;44.22;;
48845;SDS011;34665;51.886;5.436;2022-12-10T06:03:33;248.40;;;44.10;;
48845;SDS011;34665;51.886;5.436;2022-12-10T06:05:58;223.87;;;39.23;;
48845;SDS011;34665;51.886;5.436;2022-12-10T06:08:24;263.50;;;40.63;;
48845;SDS011;34665;51.886;5.436;2022-12-10T06:10:49;285.20;;;42.00;;
48845;SDS011;34665;51.886;5.436;2022-12-10T06:13:15;256.00;;;41.93;;
48845;SDS011;34665;51.886;5.436;2022-12-10T06:15:41;214.75;;;37.88;;
48845;SDS011;34665;51.886;5.436;2022-12-10T06:18:07;178.90;;;41.78;;
48845;SDS011;34665;51.886;5.436;2022-12-10T06:20:33;231.40;;;43.90;;
48845;SDS011;34665;51.886;5.436;2022-12-10T06:22:58;244.05;;;44.20;;
48845;SDS011;34665;51.886;5.436;2022-12-10T06:25:24;193.27;;;41.80;;
48845;SDS011;34665;51.886;5.436;2022-12-10T06:27:49;196.45;;;44.45;;
48845;SDS011;34665;51.886;5.436;2022-12-10T06:30:14;264.73;;;46.73;;
48845;SDS011;34665;51.886;5.436;2022-12-10T06:32:40;191.80;;;42.10;;
48845;SDS011;34665;51.886;5.436;2022-12-10T06:35:08;203.95;;;38.72;;
48845;SDS011;34665;51.886;5.436;2022-12-10T06:39:59;161.40;;;35.87;;
48845;SDS011;34665;51.886;5.436;2022-12-10T06:42:25;204.80;;;39.08;;
48845;SDS011;34665;51.886;5.436;2022-12-10T06:44:51;246.75;;;42.42;;
48845;SDS011;34665;51.886;5.436;2022-12-10T06:47:16;236.27;;;44.40;;
48845;SDS011;34665;51.886;5.436;2022-12-10T06:49:42;188.55;;;42.58;;
48845;SDS011;34665;51.886;5.436;2022-12-10T06:52:07;200.87;;;42.37;;
48845;SDS011;34665;51.886;5.436;2022-12-10T06:54:33;219.03;;;43.00;;
48845;SDS011;34665;51.886;5.436;2022-12-10T06:56:59;167.63;;;41.75;;
48845;SDS011;34665;51.886;5.436;2022-12-10T06:59:24;192.13;;;43.10;;
48845;SDS011;34665;51.886;5.436;2022-12-10T07:01:50;169.02;;;31.45;;
48845;SDS011;34665;51.886;5.436;2022-12-10T07:04:15;148.95;;;34.67;;
48845;SDS011;34665;51.886;5.436;2022-12-10T07:06:41;223.60;;;39.20;;
48845;SDS011;34665;51.886;5.436;2022-12-10T07:09:06;206.77;;;40.93;;
48845;SDS011;34665;51.886;5.436;2022-12-10T07:11:32;258.33;;;45.93;;
48845;SDS011;34665;51.886;5.436;2022-12-10T07:13:58;348.15;;;52.40;;
48845;SDS011;34665;51.886;5.436;2022-12-10T07:16:25;232.65;;;44.78;;
48845;SDS011;34665;51.886;5.436;2022-12-10T07:18:52;236.98;;;43.00;;
48845;SDS011;34665;51.886;5.436;2022-12-10T07:23:53;197.70;;;39.78;;
48845;SDS011;34665;51.886;5.436;2022-12-10T07:26:23;243.07;;;46.08;;
48845;SDS011;34665;51.886;5.436;2022-12-10T07:28:51;305.48;;;44.38;;
48845;SDS011;34665;51.886;5.436;2022-12-10T07:31:18;196.45;;;42.80;;
48845;SDS011;34665;51.886;5.436;2022-12-10T07:33:44;218.55;;;43.15;;
48845;SDS011;34665;51.886;5.436;2022-12-10T07:36:10;195.40;;;40.63;;
48845;SDS011;34665;51.886;5.436;2022-12-10T07:38:37;228.40;;;44.33;;
48845;SDS011;34665;51.886;5.436;2022-12-10T07:41:04;211.15;;;39.30;;
48845;SDS011;34665;51.886;5.436;2022-12-10T07:43:32;221.50;;;40.17;;
48845;SDS011;34665;51.886;5.436;2022-12-10T07:46:05;203.48;;;41.63;;
48845;SDS011;34665;51.886;5.436;2022-12-10T07:48:33;182.80;;;40.80;;
48845;SDS011;34665;51.886;5.436;2022-12-10T07:50:59;191.57;;;37.83;;
48845;SDS011;34665;51.886;5.436;2022-12-10T07:53:24;293.83;;;45.15;;
48845;SDS011;34665;51.886;5.436;2022-12-10T07:55:50;208.47;;;43.13;;
48845;SDS011;34665;51.886;5.436;2022-12-10T07:58:15;231.27;;;40.40;;
48845;SDS011;34665;51.886;5.436;2022-12-10T08:00:41;231.80;;;43.30;;
48845;SDS011;34665;51.886;5.436;2022-12-10T08:03:06;158.17;;;35.47;;
48845;SDS011;34665;51.886;5.436;2022-12-10T08:05:32;158.60;;;39.65;;
48845;SDS011;34665;51.886;5.436;2022-12-10T08:07:57;245.27;;;45.57;;
48845;SDS011;34665;51.886;5.436;2022-12-10T08:10:23;166.43;;;30.73;;
48845;SDS011;34665;51.886;5.436;2022-12-10T08:12:48;177.95;;;33.53;;
48845;SDS011;34665;51.886;5.436;2022-12-10T08:15:14;209.57;;;43.53;;
48845;SDS011;34665;51.886;5.436;2022-12-10T08:17:40;235.40;;;43.60;;
48845;SDS011;34665;51.886;5.436;2022-12-10T08:20:06;178.83;;;33.03;;
48845;SDS011;34665;51.886;5.436;2022-12-10T08:22:32;216.73;;;43.28;;
48845;SDS011;34665;51.886;5.436;2022-12-10T08:24:59;223.82;;;39.50;;
48845;SDS011;34665;51.886;5.436;2022-12-10T08:27:24;238.88;;;41.50;;
48845;SDS011;34665;51.886;5.436;2022-12-10T08:29:50;147.52;;;33.20;;
48845;SDS011;34665;51.886;5.436;2022-12-10T08:32:15;241.83;;;43.00;;
48845;SDS011;34665;51.886;5.436;2022-12-10T08:34:41;195.65;;;40.10;;
48845;SDS011;34665;51.886;5.436;2022-12-10T08:37:06;235.03;;;45.17;;
48845;SDS011;34665;51.886;5.436;2022-12-10T08:39:32;223.48;;;37.70;;
48845;SDS011;34665;51.886;5.436;2022-12-10T08:41:58;210.15;;;39.25;;
48845;SDS011;34665;51.886;5.436;2022-12-10T08:44:24;183.77;;;43.70;;
48845;SDS011;34665;51.886;5.436;2022-12-10T08:46:49;194.40;;;37.73;;
48845;SDS011;34665;51.886;5.436;2022-12-10T08:49:15;214.80;;;42.95;;
48845;SDS011;34665;51.886;5.436;2022-12-10T08:51:40;162.30;;;32.43;;
48845;SDS011;34665;51.886;5.436;2022-12-10T08:54:06;184.57;;;34.33;;
48845;SDS011;34665;51.886;5.436;2022-12-10T08:56:31;229.67;;;37.83;;
48845;SDS011;34665;51.886;5.436;2022-12-10T08:58:57;114.20;;;27.02;;
48845;SDS011;34665;51.886;5.436;2022-12-10T09:01:22;177.07;;;35.23;;
48845;SDS011;34665;51.886;5.436;2022-12-10T09:03:48;136.33;;;29.70;;
48845;SDS011;34665;51.886;5.436;2022-12-10T09:06:14;135.97;;;31.73;;
48845;SDS011;34665;51.886;5.436;2022-12-10T09:08:42;154.05;;;33.22;;
48845;SDS011;34665;51.886;5.436;2022-12-10T09:13:39;209.95;;;35.70;;
48845;SDS011;34665;51.886;5.436;2022-12-10T09:16:05;152.85;;;36.58;;
48845;SDS011;34665;51.886;5.436;2022-12-10T09:18:31;135.35;;;29.48;;
48845;SDS011;34665;51.886;5.436;2022-12-10T09:20:57;151.57;;;32.33;;
48845;SDS011;34665;51.886;5.436;2022-12-10T09:23:23;133.63;;;30.73;;
48845;SDS011;34665;51.886;5.436;2022-12-10T09:25:49;141.02;;;34.60;;
48845;SDS011;34665;51.886;5.436;2022-12-10T09:28:14;132.73;;;30.77;;
48845;SDS011;34665;51.886;5.436;2022-12-10T09:30:41;190.30;;;32.75;;
48845;SDS011;34665;51.886;5.436;2022-12-10T09:33:07;185.85;;;34.85;;
48845;SDS011;34665;51.886;5.436;2022-12-10T09:35:33;193.38;;;38.05;;
48845;SDS011;34665;51.886;5.436;2022-12-10T09:37:59;199.57;;;33.33;;
48845;SDS011;34665;51.886;5.436;2022-12-10T09:40:31;148.63;;;32.43;;
48845;SDS011;34665;51.886;5.436;2022-12-10T09:43:10;142.73;;;27.75;;
48845;SDS011;34665;51.886;5.436;2022-12-10T09:45:58;132.45;;;31.90;;
48845;SDS011;34665;51.886;5.436;2022-12-10T09:51:39;166.75;;;32.42;;
48845;SDS011;34665;51.886;5.436;2022-12-10T09:54:02;205.45;;;34.47;;
48845;SDS011;34665;51.886;5.436;2022-12-10T09:56:37;124.80;;;27.73;;
48845;SDS011;34665;51.886;5.436;2022-12-10T10:04:41;148.95;;;33.97;;
48845;SDS011;34665;51.886;5.436;2022-12-10T10:07:06;109.47;;;24.58;;
48845;SDS011;34665;51.886;5.436;2022-12-10T10:09:38;121.93;;;30.77;;
48845;SDS011;34665;51.886;5.436;2022-12-10T10:12:23;112.30;;;31.02;;
48845;SDS011;34665;51.886;5.436;2022-12-10T10:14:53;97.87;;;25.80;;
48845;SDS011;34665;51.886;5.436;2022-12-10T10:17:19;118.00;;;30.10;;
48845;SDS011;34665;51.886;5.436;2022-12-10T10:19:49;100.40;;;25.25;;
48845;SDS011;34665;51.886;5.436;2022-12-10T10:22:14;74.28;;;20.73;;
48845;SDS011;34665;51.886;5.436;2022-12-10T10:24:42;133.77;;;27.15;;
48845;SDS011;34665;51.886;5.436;2022-12-10T10:29:39;135.23;;;27.92;;
48845;SDS011;34665;51.886;5.436;2022-12-10T10:32:15;120.00;;;21.77;;
48845;SDS011;34665;51.886;5.436;2022-12-10T10:34:46;184.68;;;32.50;;
48845;SDS011;34665;51.886;5.436;2022-12-10T10:37:20;129.10;;;26.23;;
48845;SDS011;34665;51.886;5.436;2022-12-10T10:39:47;111.50;;;27.92;;
48845;SDS011;34665;51.886;5.436;2022-12-10T10:42:17;116.50;;;26.13;;
48845;SDS011;34665;51.886;5.436;2022-12-10T10:44:51;119.50;;;27.95;;
48845;SDS011;34665;51.886;5.436;2022-12-10T10:49:58;112.05;;;24.60;;
48845;SDS011;34665;51.886;5.436;2022-12-10T10:52:29;98.28;;;23.80;;
48845;SDS011;34665;51.886;5.436;2022-12-10T10:55:00;140.30;;;27.10;;
48845;SDS011;34665;51.886;5.436;2022-12-10T10:57:32;119.47;;;26.27;;
48845;SDS011;34665;51.886;5.436;2022-12-10T11:07:58;90.07;;;25.05;;
48845;SDS011;34665;51.886;5.436;2022-12-10T11:10:26;93.15;;;25.90;;
48845;SDS011;34665;51.886;5.436;2022-12-10T11:13:35;117.72;;;24.88;;
48845;SDS011;34665;51.886;5.436;2022-12-10T11:15:55;113.43;;;27.98;;
48845;SDS011;34665;51.886;5.436;2022-12-10T11:20:58;101.53;;;25.23;;
48845;SDS011;34665;51.886;5.436;2022-12-10T11:23:26;129.85;;;26.23;;
48845;SDS011;34665;51.886;5.436;2022-12-10T11:25:56;84.50;;;22.75;;
48845;SDS011;34665;51.886;5.436;2022-12-10T11:39:54;96.35;;;24.70;;
48845;SDS011;34665;51.886;5.436;2022-12-10T11:50:46;86.50;;;23.48;;
48845;SDS011;34665;51.886;5.436;2022-12-10T11:53:35;83.13;;;22.33;;
48845;SDS011;34665;51.886;5.436;2022-12-10T11:56:26;94.18;;;26.45;;
48845;SDS011;34665;51.886;5.436;2022-12-10T12:01:46;90.72;;;24.75;;
48845;SDS011;34665;51.886;5.436;2022-12-10T12:04:55;101.93;;;26.75;;
48845;SDS011;34665;51.886;5.436;2022-12-10T12:07:58;124.55;;;25.60;;
48845;SDS011;34665;51.886;5.436;2022-12-10T12:13:33;96.25;;;28.42;;
48845;SDS011;34665;51.886;5.436;2022-12-10T12:18:47;90.50;;;24.73;;
48845;SDS011;34665;51.886;5.436;2022-12-10T12:21:19;63.75;;;19.80;;
48845;SDS011;34665;51.886;5.436;2022-12-10T12:23:51;105.63;;;24.90;;
48845;SDS011;34665;51.886;5.436;2022-12-10T12:26:30;83.13;;;24.10;;
48845;SDS011;34665;51.886;5.436;2022-12-10T12:29:11;81.38;;;23.95;;
48845;SDS011;34665;51.886;5.436;2022-12-10T12:31:53;78.05;;;22.38;;
48845;SDS011;34665;51.886;5.436;2022-12-10T12:34:32;82.20;;;23.55;;
48845;SDS011;34665;51.886;5.436;2022-12-10T12:37:10;92.97;;;25.13;;
48845;SDS011;34665;51.886;5.436;2022-12-10T12:39:50;92.80;;;25.20;;
48845;SDS011;34665;51.886;5.436;2022-12-10T12:42:28;128.43;;;27.10;;
48845;SDS011;34665;51.886;5.436;2022-12-10T12:47:41;84.05;;;23.23;;
48845;SDS011;34665;51.886;5.436;2022-12-10T12:50:21;91.15;;;24.42;;
48845;SDS011;34665;51.886;5.436;2022-12-10T12:52:53;93.35;;;26.75;;
48845;SDS011;34665;51.886;5.436;2022-12-10T13:01:08;82.82;;;24.13;;
48845;SDS011;34665;51.886;5.436;2022-12-10T13:03:43;83.50;;;22.60;;
48845;SDS011;34665;51.886;5.436;2022-12-10T13:11:46;78.82;;;22.48;;
48845;SDS011;34665;51.886;5.436;2022-12-10T13:14:35;103.47;;;27.60;;
48845;SDS011;34665;51.886;5.436;2022-12-10T13:19:48;83.70;;;23.42;;
48845;SDS011;34665;51.886;5.436;2022-12-10T13:25:12;80.25;;;22.42;;
48845;SDS011;34665;51.886;5.436;2022-12-10T13:27:37;101.22;;;26.00;;
48845;SDS011;34665;51.886;5.436;2022-12-10T13:30:48;102.78;;;25.17;;
48845;SDS011;34665;51.886;5.436;2022-12-10T13:33:05;86.45;;;25.50;;
48845;SDS011;34665;51.886;5.436;2022-12-10T13:35:48;102.60;;;25.52;;
48845;SDS011;34665;51.886;5.436;2022-12-10T13:38:23;85.97;;;24.27;;
48845;SDS011;34665;51.886;5.436;2022-12-10T13:40:58;106.85;;;27.10;;
48845;SDS011;34665;51.886;5.436;2022-12-10T13:43:51;80.35;;;22.42;;
48845;SDS011;34665;51.886;5.436;2022-12-10T13:49:57;85.88;;;22.23;;
48845;SDS011;34665;51.886;5.436;2022-12-10T14:00:29;88.60;;;21.17;;
48845;SDS011;34665;51.886;5.436;2022-12-10T14:05:58;74.32;;;19.95;;
48845;SDS011;34665;51.886;5.436;2022-12-10T14:08:47;82.47;;;21.70;;
48845;SDS011;34665;51.886;5.436;2022-12-10T14:11:23;99.72;;;25.42;;
48845;SDS011;34665;51.886;5.436;2022-12-10T14:13:57;87.63;;;24.13;;
48845;SDS011;34665;51.886;5.436;2022-12-10T14:16:30;82.43;;;22.33;;
48845;SDS011;34665;51.886;5.436;2022-12-10T14:19:00;79.30;;;23.88;;
48845;SDS011;34665;51.886;5.436;2022-12-10T14:21:33;84.88;;;21.90;;
48845;SDS011;34665;51.886;5.436;2022-12-10T14:24:01;79.15;;;23.17;;
48845;SDS011;34665;51.886;5.436;2022-12-10T14:26:29;85.53;;;23.63;;
48845;SDS011;34665;51.886;5.436;2022-12-10T14:29:01;81.20;;;22.52;;
48845;SDS011;34665;51.886;5.436;2022-12-10T14:31:32;90.60;;;24.27;;
48845;SDS011;34665;51.886;5.436;2022-12-10T14:34:03;81.82;;;25.10;;
48845;SDS011;34665;51.886;5.436;2022-12-10T14:36:32;97.68;;;24.83;;
48845;SDS011;34665;51.886;5.436;2022-12-10T14:39:16;110.93;;;27.50;;
48845;SDS011;34665;51.886;5.436;2022-12-10T14:41:45;93.22;;;24.15;;
48845;SDS011;34665;51.886;5.436;2022-12-10T14:44:15;118.00;;;28.02;;
48845;SDS011;34665;51.886;5.436;2022-12-10T14:46:42;100.70;;;26.17;;
48845;SDS011;34665;51.886;5.436;2022-12-10T14:49:12;108.47;;;29.15;;
48845;SDS011;34665;51.886;5.436;2022-12-10T14:51:41;114.90;;;27.02;;
48845;SDS011;34665;51.886;5.436;2022-12-10T14:54:22;119.77;;;30.10;;
48845;SDS011;34665;51.886;5.436;2022-12-10T14:57:02;113.25;;;27.35;;
48845;SDS011;34665;51.886;5.436;2022-12-10T14:59:46;95.25;;;24.77;;
48845;SDS011;34665;51.886;5.436;2022-12-10T15:02:19;102.47;;;24.35;;
48845;SDS011;34665;51.886;5.436;2022-12-10T15:04:51;122.60;;;28.15;;
48845;SDS011;34665;51.886;5.436;2022-12-10T15:07:18;107.00;;;26.13;;
48845;SDS011;34665;51.886;5.436;2022-12-10T15:09:47;98.95;;;25.58;;
48845;SDS011;34665;51.886;5.436;2022-12-10T15:15:10;111.32;;;27.60;;
48845;SDS011;34665;51.886;5.436;2022-12-10T15:17:41;95.88;;;25.60;;
48845;SDS011;34665;51.886;5.436;2022-12-10T15:20:22;106.97;;;28.55;;
48845;SDS011;34665;51.886;5.436;2022-12-10T15:22:50;110.88;;;30.38;;
48845;SDS011;34665;51.886;5.436;2022-12-10T15:25:23;117.75;;;26.38;;
48845;SDS011;34665;51.886;5.436;2022-12-10T15:27:56;96.55;;;26.98;;
48845;SDS011;34665;51.886;5.436;2022-12-10T15:30:33;93.38;;;24.67;;
48845;SDS011;34665;51.886;5.436;2022-12-10T15:35:47;109.47;;;25.08;;
48845;SDS011;34665;51.886;5.436;2022-12-10T15:38:12;108.75;;;27.73;;
48845;SDS011;34665;51.886;5.436;2022-12-10T15:40:38;98.28;;;27.85;;
48845;SDS011;34665;51.886;5.436;2022-12-10T15:43:37;75.17;;;20.53;;
48845;SDS011;34665;51.886;5.436;2022-12-10T15:45:56;112.70;;;26.65;;
48845;SDS011;34665;51.886;5.436;2022-12-10T15:48:23;98.30;;;25.30;;
48845;SDS011;34665;51.886;5.436;2022-12-10T15:50:52;114.35;;;28.83;;
48845;SDS011;34665;51.886;5.436;2022-12-10T15:53:23;105.40;;;28.02;;
48845;SDS011;34665;51.886;5.436;2022-12-10T15:55:51;117.43;;;30.38;;
48845;SDS011;34665;51.886;5.436;2022-12-10T15:58:17;119.97;;;29.50;;
48845;SDS011;34665;51.886;5.436;2022-12-10T16:00:42;106.93;;;27.27;;
48845;SDS011;34665;51.886;5.436;2022-12-10T16:03:15;105.35;;;28.40;;
48845;SDS011;34665;51.886;5.436;2022-12-10T16:05:43;118.30;;;29.10;;
48845;SDS011;34665;51.886;5.436;2022-12-10T16:10:46;119.50;;;28.50;;
48845;SDS011;34665;51.886;5.436;2022-12-10T16:13:17;111.93;;;31.70;;
48845;SDS011;34665;51.886;5.436;2022-12-10T16:15:50;106.95;;;29.55;;
48845;SDS011;34665;51.886;5.436;2022-12-10T16:18:18;120.05;;;30.02;;
48845;SDS011;34665;51.886;5.436;2022-12-10T16:20:44;109.85;;;29.63;;
48845;SDS011;34665;51.886;5.436;2022-12-10T16:23:10;135.55;;;29.08;;
48845;SDS011;34665;51.886;5.436;2022-12-10T16:25:36;100.90;;;26.02;;
48845;SDS011;34665;51.886;5.436;2022-12-10T16:28:09;116.75;;;29.70;;
48845;SDS011;34665;51.886;5.436;2022-12-10T16:30:37;130.57;;;29.50;;
48845;SDS011;34665;51.886;5.436;2022-12-10T16:33:06;132.43;;;32.10;;